sensor_id;sensor_type;location;lat;lon;timestamp;pressure;altitude;pressure_sealevel;temperature;humidity
76808;BME280;65758;45.458;11.062;2023-03-12T00:02:02;100044.61;;;12.96;50.60
76808;BME280;65758;45.458;11.062;2023-03-12T00:04:30;100040.81;;;12.96;50.56
76808;BME280;65758;45.458;11.062;2023-03-12T00:07:00;100042.36;;;12.95;50.49
76808;BME280;65758;45.458;11.062;2023-03-12T00:09:27;100045.05;;;12.96;50.08
76808;BME280;65758;45.458;11.062;2023-03-12T00:11:54;100045.59;;;12.95;49.94
76808;BME280;65758;45.458;11.062;2023-03-12T00:14:20;100052.13;;;12.94;50.43
76808;BME280;65758;45.458;11.062;2023-03-12T00:16:47;100056.49;;;12.92;50.52
76808;BME280;65758;45.458;11.062;2023-03-12T00:19:14;100060.17;;;12.91;50.86
76808;BME280;65758;45.458;11.062;2023-03-12T00:21:41;100065.86;;;12.89;50.86
76808;BME280;65758;45.458;11.062;2023-03-12T00:24:07;100068.03;;;12.88;51.47
76808;BME280;65758;45.458;11.062;2023-03-12T00:26:34;100071.30;;;12.86;51.76
76808;BME280;65758;45.458;11.062;2023-03-12T00:29:01;100074.26;;;12.84;52.33
76808;BME280;65758;45.458;11.062;2023-03-12T00:31:30;100085.58;;;12.85;52.56
76808;BME280;65758;45.458;11.062;2023-03-12T00:34:00;100094.02;;;12.83;53.07
76808;BME280;65758;45.458;11.062;2023-03-12T00:36:29;100096.25;;;12.82;53.22
76808;BME280;65758;45.458;11.062;2023-03-12T00:38:58;100094.27;;;12.82;53.83
76808;BME280;65758;45.458;11.062;2023-03-12T00:41:25;100089.78;;;12.82;53.96
76808;BME280;65758;45.458;11.062;2023-03-12T00:43:53;100093.80;;;12.83;53.81
76808;BME280;65758;45.458;11.062;2023-03-12T00:46:20;100097.90;;;12.82;54.24
76808;BME280;65758;45.458;11.062;2023-03-12T00:48:47;100102.20;;;12.83;54.12
76808;BME280;65758;45.458;11.062;2023-03-12T00:51:14;100106.62;;;12.81;54.23
76808;BME280;65758;45.458;11.062;2023-03-12T00:53:41;100105.90;;;12.80;53.67
76808;BME280;65758;45.458;11.062;2023-03-12T00:56:08;100109.13;;;12.80;53.51
76808;BME280;65758;45.458;11.062;2023-03-12T00:58:35;100109.91;;;12.79;53.32
76808;BME280;65758;45.458;11.062;2023-03-12T01:01:03;100114.07;;;12.79;53.18
76808;BME280;65758;45.458;11.062;2023-03-12T01:03:30;100120.05;;;12.79;53.27
76808;BME280;65758;45.458;11.062;2023-03-12T01:05:57;100114.17;;;12.79;52.86
76808;BME280;65758;45.458;11.062;2023-03-12T01:08:23;100114.30;;;12.79;52.61
76808;BME280;65758;45.458;11.062;2023-03-12T01:10:51;100114.08;;;12.80;52.42
76808;BME280;65758;45.458;11.062;2023-03-12T01:13:18;100114.79;;;12.79;52.25
76808;BME280;65758;45.458;11.062;2023-03-12T01:15:45;100113.13;;;12.79;52.38
76808;BME280;65758;45.458;11.062;2023-03-12T01:18:11;100120.15;;;12.78;52.28
76808;BME280;65758;45.458;11.062;2023-03-12T01:20:38;100123.70;;;12.77;52.51
76808;BME280;65758;45.458;11.062;2023-03-12T01:23:06;100124.16;;;12.74;52.77
76808;BME280;65758;45.458;11.062;2023-03-12T01:25:34;100131.21;;;12.71;52.78
76808;BME280;65758;45.458;11.062;2023-03-12T01:28:02;100131.46;;;12.70;52.78
76808;BME280;65758;45.458;11.062;2023-03-12T01:30:29;100133.38;;;12.68;52.95
76808;BME280;65758;45.458;11.062;2023-03-12T01:32:56;100137.54;;;12.68;52.79
76808;BME280;65758;45.458;11.062;2023-03-12T01:35:23;100139.21;;;12.66;52.72
76808;BME280;65758;45.458;11.062;2023-03-12T01:37:50;100142.56;;;12.65;52.61
76808;BME280;65758;45.458;11.062;2023-03-12T01:40:21;100144.19;;;12.64;52.76
76808;BME280;65758;45.458;11.062;2023-03-12T01:42:52;100143.07;;;12.63;52.77
76808;BME280;65758;45.458;11.062;2023-03-12T01:46:01;100153.31;;;12.62;52.93
76808;BME280;65758;45.458;11.062;2023-03-12T01:49:06;100159.02;;;12.62;52.80
76808;BME280;65758;45.458;11.062;2023-03-12T01:52:01;100170.89;;;12.62;52.83
76808;BME280;65758;45.458;11.062;2023-03-12T01:54:33;100179.11;;;12.62;52.95
76808;BME280;65758;45.458;11.062;2023-03-12T01:57:04;100182.53;;;12.62;53.11
76808;BME280;65758;45.458;11.062;2023-03-12T01:59:36;100181.66;;;12.63;52.78
76808;BME280;65758;45.458;11.062;2023-03-12T02:02:05;100186.61;;;12.63;53.21
76808;BME280;65758;45.458;11.062;2023-03-12T02:04:32;100189.20;;;12.64;52.71
76808;BME280;65758;45.458;11.062;2023-03-12T02:07:03;100186.96;;;12.64;52.94
76808;BME280;65758;45.458;11.062;2023-03-12T02:09:32;100193.01;;;12.65;52.63
76808;BME280;65758;45.458;11.062;2023-03-12T02:12:00;100187.79;;;12.66;52.62
76808;BME280;65758;45.458;11.062;2023-03-12T02:14:27;100185.21;;;12.65;52.33
76808;BME280;65758;45.458;11.062;2023-03-12T02:16:55;100190.27;;;12.65;51.97
76808;BME280;65758;45.458;11.062;2023-03-12T02:19:33;100188.62;;;12.66;51.72
76808;BME280;65758;45.458;11.062;2023-03-12T02:22:03;100190.66;;;12.66;51.47
76808;BME280;65758;45.458;11.062;2023-03-12T02:27:32;100198.33;;;12.65;50.98
76808;BME280;65758;45.458;11.062;2023-03-12T02:29:59;100204.59;;;12.65;50.74
76808;BME280;65758;45.458;11.062;2023-03-12T02:32:33;100206.12;;;12.64;50.70
76808;BME280;65758;45.458;11.062;2023-03-12T02:35:03;100214.80;;;12.64;50.83
76808;BME280;65758;45.458;11.062;2023-03-12T02:37:30;100219.19;;;12.64;51.01
76808;BME280;65758;45.458;11.062;2023-03-12T02:40:06;100222.31;;;12.64;51.02
76808;BME280;65758;45.458;11.062;2023-03-12T02:42:36;100221.91;;;12.63;50.82
76808;BME280;65758;45.458;11.062;2023-03-12T02:45:03;100226.95;;;12.63;50.72
76808;BME280;65758;45.458;11.062;2023-03-12T02:47:30;100235.33;;;12.61;51.21
76808;BME280;65758;45.458;11.062;2023-03-12T02:49:58;100243.83;;;12.60;51.15
76808;BME280;65758;45.458;11.062;2023-03-12T02:52:25;100245.66;;;12.59;51.16
76808;BME280;65758;45.458;11.062;2023-03-12T02:54:52;100248.77;;;12.57;51.06
76808;BME280;65758;45.458;11.062;2023-03-12T02:57:19;100256.63;;;12.57;51.01
76808;BME280;65758;45.458;11.062;2023-03-12T02:59:46;100257.33;;;12.57;50.66
76808;BME280;65758;45.458;11.062;2023-03-12T03:02:13;100262.86;;;12.57;50.64
76808;BME280;65758;45.458;11.062;2023-03-12T03:04:40;100266.74;;;12.55;50.09
76808;BME280;65758;45.458;11.062;2023-03-12T03:07:06;100266.28;;;12.54;49.80
76808;BME280;65758;45.458;11.062;2023-03-12T03:09:33;100269.05;;;12.51;49.51
76808;BME280;65758;45.458;11.062;2023-03-12T03:12:00;100273.17;;;12.49;49.17
76808;BME280;65758;45.458;11.062;2023-03-12T03:14:28;100277.65;;;12.47;49.17
76808;BME280;65758;45.458;11.062;2023-03-12T03:16:55;100285.21;;;12.46;49.21
76808;BME280;65758;45.458;11.062;2023-03-12T03:19:22;100289.27;;;12.45;49.06
76808;BME280;65758;45.458;11.062;2023-03-12T03:21:48;100295.40;;;12.44;49.01
76808;BME280;65758;45.458;11.062;2023-03-12T03:24:15;100299.77;;;12.42;49.05
76808;BME280;65758;45.458;11.062;2023-03-12T03:26:42;100308.08;;;12.42;49.32
76808;BME280;65758;45.458;11.062;2023-03-12T03:29:10;100306.21;;;12.41;48.79
76808;BME280;65758;45.458;11.062;2023-03-12T03:31:36;100311.73;;;12.40;48.97
76808;BME280;65758;45.458;11.062;2023-03-12T03:34:03;100315.02;;;12.39;48.46
76808;BME280;65758;45.458;11.062;2023-03-12T03:36:30;100314.19;;;12.39;48.83
76808;BME280;65758;45.458;11.062;2023-03-12T03:39:07;100316.59;;;12.39;48.64
76808;BME280;65758;45.458;11.062;2023-03-12T03:41:34;100316.86;;;12.38;48.73
76808;BME280;65758;45.458;11.062;2023-03-12T03:44:01;100318.48;;;12.40;48.69
76808;BME280;65758;45.458;11.062;2023-03-12T03:46:28;100320.98;;;12.38;48.40
76808;BME280;65758;45.458;11.062;2023-03-12T03:49:00;100326.27;;;12.36;48.21
76808;BME280;65758;45.458;11.062;2023-03-12T03:51:27;100331.61;;;12.34;48.27
76808;BME280;65758;45.458;11.062;2023-03-12T03:53:58;100335.16;;;12.33;48.03
76808;BME280;65758;45.458;11.062;2023-03-12T03:56:26;100342.44;;;12.32;48.14
76808;BME280;65758;45.458;11.062;2023-03-12T03:58:53;100347.98;;;12.32;48.07
76808;BME280;65758;45.458;11.062;2023-03-12T04:01:20;100350.14;;;12.30;48.37
76808;BME280;65758;45.458;11.062;2023-03-12T04:03:47;100356.92;;;12.28;48.34
76808;BME280;65758;45.458;11.062;2023-03-12T04:06:14;100363.46;;;12.26;48.39
76808;BME280;65758;45.458;11.062;2023-03-12T04:08:41;100368.52;;;12.27;48.52
76808;BME280;65758;45.458;11.062;2023-03-12T04:11:14;100374.12;;;12.26;48.65
76808;BME280;65758;45.458;11.062;2023-03-12T04:13:42;100377.55;;;12.25;48.50
76808;BME280;65758;45.458;11.062;2023-03-12T04:16:10;100380.91;;;12.24;48.48
76808;BME280;65758;45.458;11.062;2023-03-12T04:18:38;100384.46;;;12.23;48.67
76808;BME280;65758;45.458;11.062;2023-03-12T04:21:09;100384.25;;;12.23;48.61
76808;BME280;65758;45.458;11.062;2023-03-12T04:23:37;100387.48;;;12.22;48.45
76808;BME280;65758;45.458;11.062;2023-03-12T04:26:05;100391.16;;;12.20;48.50
76808;BME280;65758;45.458;11.062;2023-03-12T04:28:34;100398.27;;;12.19;48.67
76808;BME280;65758;45.458;11.062;2023-03-12T04:31:04;100402.39;;;12.19;48.85
76808;BME280;65758;45.458;11.062;2023-03-12T04:33:39;100406.39;;;12.19;49.09
76808;BME280;65758;45.458;11.062;2023-03-12T04:36:07;100402.98;;;12.18;49.03
76808;BME280;65758;45.458;11.062;2023-03-12T04:38:35;100406.65;;;12.18;48.57
76808;BME280;65758;45.458;11.062;2023-03-12T04:41:10;100408.77;;;12.17;49.05
76808;BME280;65758;45.458;11.062;2023-03-12T04:43:42;100415.70;;;12.16;48.75
76808;BME280;65758;45.458;11.062;2023-03-12T04:46:09;100418.98;;;12.15;49.34
76808;BME280;65758;45.458;11.062;2023-03-12T04:48:37;100425.90;;;12.15;48.99
76808;BME280;65758;45.458;11.062;2023-03-12T04:51:05;100429.30;;;12.14;48.96
76808;BME280;65758;45.458;11.062;2023-03-12T04:53:32;100429.48;;;12.13;49.19
76808;BME280;65758;45.458;11.062;2023-03-12T04:56:00;100437.05;;;12.10;48.92
76808;BME280;65758;45.458;11.062;2023-03-12T04:58:27;100443.45;;;12.09;49.07
76808;BME280;65758;45.458;11.062;2023-03-12T05:00:54;100445.30;;;12.08;49.01
76808;BME280;65758;45.458;11.062;2023-03-12T05:03:21;100446.38;;;12.07;49.14
76808;BME280;65758;45.458;11.062;2023-03-12T05:05:49;100452.68;;;12.07;48.92
76808;BME280;65758;45.458;11.062;2023-03-12T05:08:16;100460.16;;;12.06;49.15
76808;BME280;65758;45.458;11.062;2023-03-12T05:10:42;100464.99;;;12.04;49.24
76808;BME280;65758;45.458;11.062;2023-03-12T05:13:14;100473.27;;;12.04;49.35
76808;BME280;65758;45.458;11.062;2023-03-12T05:15:43;100479.91;;;12.01;49.15
76808;BME280;65758;45.458;11.062;2023-03-12T05:18:10;100484.39;;;11.99;49.21
76808;BME280;65758;45.458;11.062;2023-03-12T05:20:37;100489.13;;;11.98;49.45
76808;BME280;65758;45.458;11.062;2023-03-12T05:23:06;100494.95;;;11.96;49.33
76808;BME280;65758;45.458;11.062;2023-03-12T05:25:33;100498.74;;;11.94;49.25
76808;BME280;65758;45.458;11.062;2023-03-12T05:28:00;100507.33;;;11.93;49.29
76808;BME280;65758;45.458;11.062;2023-03-12T05:30:27;100510.59;;;11.94;49.58
76808;BME280;65758;45.458;11.062;2023-03-12T05:32:54;100508.45;;;11.94;49.32
76808;BME280;65758;45.458;11.062;2023-03-12T05:35:21;100513.04;;;11.95;49.59
76808;BME280;65758;45.458;11.062;2023-03-12T05:37:49;100512.73;;;11.94;49.36
76808;BME280;65758;45.458;11.062;2023-03-12T05:40:16;100515.74;;;11.94;49.33
76808;BME280;65758;45.458;11.062;2023-03-12T05:42:43;100521.08;;;11.92;49.35
76808;BME280;65758;45.458;11.062;2023-03-12T05:45:10;100524.59;;;11.92;49.34
76808;BME280;65758;45.458;11.062;2023-03-12T05:47:39;100530.61;;;11.92;49.61
76808;BME280;65758;45.458;11.062;2023-03-12T05:50:06;100531.98;;;11.92;49.67
76808;BME280;65758;45.458;11.062;2023-03-12T05:52:34;100536.63;;;11.91;49.70
76808;BME280;65758;45.458;11.062;2023-03-12T05:55:01;100537.08;;;11.91;49.76
76808;BME280;65758;45.458;11.062;2023-03-12T05:57:28;100537.40;;;11.91;50.33
76808;BME280;65758;45.458;11.062;2023-03-12T05:59:56;100542.36;;;11.92;49.82
76808;BME280;65758;45.458;11.062;2023-03-12T06:02:23;100551.65;;;11.93;49.76
76808;BME280;65758;45.458;11.062;2023-03-12T06:04:50;100554.69;;;11.94;49.92
76808;BME280;65758;45.458;11.062;2023-03-12T06:07:17;100557.27;;;11.96;49.94
76808;BME280;65758;45.458;11.062;2023-03-12T06:09:43;100553.10;;;12.04;49.94
76808;BME280;65758;45.458;11.062;2023-03-12T06:12:11;100558.48;;;12.09;50.29
76808;BME280;65758;45.458;11.062;2023-03-12T06:14:38;100565.94;;;12.14;50.63
76808;BME280;65758;45.458;11.062;2023-03-12T06:17:05;100573.09;;;12.19;50.59
76808;BME280;65758;45.458;11.062;2023-03-12T06:19:32;100578.13;;;12.25;50.02
76808;BME280;65758;45.458;11.062;2023-03-12T06:21:59;100580.62;;;12.28;49.67
76808;BME280;65758;45.458;11.062;2023-03-12T06:24:26;100583.31;;;12.33;50.00
76808;BME280;65758;45.458;11.062;2023-03-12T06:26:59;100584.52;;;12.38;49.80
76808;BME280;65758;45.458;11.062;2023-03-12T06:29:26;100587.25;;;12.43;49.30
76808;BME280;65758;45.458;11.062;2023-03-12T06:31:52;100587.23;;;12.48;49.42
76808;BME280;65758;45.458;11.062;2023-03-12T06:34:19;100587.16;;;12.52;49.17
76808;BME280;65758;45.458;11.062;2023-03-12T06:36:46;100592.77;;;12.56;49.15
76808;BME280;65758;45.458;11.062;2023-03-12T06:39:13;100592.14;;;12.60;49.61
76808;BME280;65758;45.458;11.062;2023-03-12T06:41:39;100591.06;;;12.61;49.11
76808;BME280;65758;45.458;11.062;2023-03-12T06:44:07;100592.18;;;12.64;49.19
76808;BME280;65758;45.458;11.062;2023-03-12T06:46:34;100596.52;;;12.64;48.83
76808;BME280;65758;45.458;11.062;2023-03-12T06:49:01;100597.79;;;12.64;48.77
76808;BME280;65758;45.458;11.062;2023-03-12T06:51:28;100606.23;;;12.64;48.68
76808;BME280;65758;45.458;11.062;2023-03-12T06:53:54;100614.48;;;12.64;48.72
76808;BME280;65758;45.458;11.062;2023-03-12T06:56:21;100625.04;;;12.65;48.78
76808;BME280;65758;45.458;11.062;2023-03-12T06:58:48;100616.27;;;12.69;48.58
76808;BME280;65758;45.458;11.062;2023-03-12T07:01:15;100619.27;;;12.73;48.86
76808;BME280;65758;45.458;11.062;2023-03-12T07:03:42;100624.56;;;12.80;49.67
76808;BME280;65758;45.458;11.062;2023-03-12T07:06:18;100621.77;;;12.89;49.78
76808;BME280;65758;45.458;11.062;2023-03-12T07:08:45;100624.85;;;13.00;49.44
76808;BME280;65758;45.458;11.062;2023-03-12T07:11:13;100628.56;;;13.10;49.35
76808;BME280;65758;45.458;11.062;2023-03-12T07:13:40;100633.56;;;13.20;49.23
76808;BME280;65758;45.458;11.062;2023-03-12T07:16:07;100630.16;;;13.30;49.01
76808;BME280;65758;45.458;11.062;2023-03-12T07:18:34;100635.67;;;13.40;48.86
76808;BME280;65758;45.458;11.062;2023-03-12T07:21:01;100631.11;;;13.49;48.41
76808;BME280;65758;45.458;11.062;2023-03-12T07:23:28;100632.39;;;13.56;48.25
76808;BME280;65758;45.458;11.062;2023-03-12T07:25:54;100634.02;;;13.61;48.09
76808;BME280;65758;45.458;11.062;2023-03-12T07:28:21;100632.88;;;13.65;48.25
76808;BME280;65758;45.458;11.062;2023-03-12T07:30:48;100640.60;;;13.70;47.68
76808;BME280;65758;45.458;11.062;2023-03-12T07:33:19;100643.64;;;13.77;47.67
76808;BME280;65758;45.458;11.062;2023-03-12T07:35:48;100649.40;;;13.84;47.43
76808;BME280;65758;45.458;11.062;2023-03-12T07:38:17;100655.77;;;13.89;47.40
76808;BME280;65758;45.458;11.062;2023-03-12T07:40:49;100659.64;;;13.97;47.52
76808;BME280;65758;45.458;11.062;2023-03-12T07:43:17;100664.48;;;14.08;47.12
76808;BME280;65758;45.458;11.062;2023-03-12T07:45:48;100667.36;;;14.19;46.99
76808;BME280;65758;45.458;11.062;2023-03-12T07:48:16;100670.05;;;14.29;46.97
76808;BME280;65758;45.458;11.062;2023-03-12T07:50:46;100674.98;;;14.38;46.30
76808;BME280;65758;45.458;11.062;2023-03-12T07:53:14;100675.58;;;14.45;46.10
76808;BME280;65758;45.458;11.062;2023-03-12T07:55:44;100678.00;;;14.53;46.06
76808;BME280;65758;45.458;11.062;2023-03-12T07:58:13;100678.75;;;14.60;45.47
76808;BME280;65758;45.458;11.062;2023-03-12T08:00:41;100684.87;;;14.64;45.01
76808;BME280;65758;45.458;11.062;2023-03-12T08:03:07;100685.91;;;14.71;45.01
76808;BME280;65758;45.458;11.062;2023-03-12T08:05:35;100682.42;;;14.78;45.22
76808;BME280;65758;45.458;11.062;2023-03-12T08:08:02;100686.39;;;14.87;44.48
76808;BME280;65758;45.458;11.062;2023-03-12T08:10:29;100686.35;;;14.92;44.39
76808;BME280;65758;45.458;11.062;2023-03-12T08:12:56;100684.67;;;14.96;43.97
76808;BME280;65758;45.458;11.062;2023-03-12T08:15:23;100687.13;;;14.98;43.38
76808;BME280;65758;45.458;11.062;2023-03-12T15:26:26;100805.64;;;18.48;36.99
76808;BME280;65758;45.458;11.062;2023-03-12T15:29:23;100797.70;;;18.36;37.36
76808;BME280;65758;45.458;11.062;2023-03-12T15:31:56;100797.31;;;18.25;37.87
76808;BME280;65758;45.458;11.062;2023-03-12T15:34:34;100803.35;;;18.18;38.31
76808;BME280;65758;45.458;11.062;2023-03-12T15:37:32;100804.06;;;18.13;38.23
76808;BME280;65758;45.458;11.062;2023-03-12T15:40:19;100816.85;;;18.05;38.47
76808;BME280;65758;45.458;11.062;2023-03-12T15:42:48;100817.45;;;17.98;38.21
76808;BME280;65758;45.458;11.062;2023-03-12T15:45:25;100821.02;;;17.92;38.70
76808;BME280;65758;45.458;11.062;2023-03-12T15:47:54;100826.83;;;17.84;38.58
76808;BME280;65758;45.458;11.062;2023-03-12T15:50:26;100827.23;;;17.77;38.57
76808;BME280;65758;45.458;11.062;2023-03-12T15:53:04;100818.48;;;17.69;39.13
76808;BME280;65758;45.458;11.062;2023-03-12T15:55:34;100813.35;;;17.61;39.63
76808;BME280;65758;45.458;11.062;2023-03-12T15:58:01;100816.59;;;17.57;39.71
76808;BME280;65758;45.458;11.062;2023-03-12T16:00:50;100820.80;;;17.52;39.23
76808;BME280;65758;45.458;11.062;2023-03-12T16:03:19;100823.66;;;17.45;39.28
76808;BME280;65758;45.458;11.062;2023-03-12T16:05:48;100825.13;;;17.40;39.25
76808;BME280;65758;45.458;11.062;2023-03-12T16:08:20;100824.33;;;17.34;39.36
76808;BME280;65758;45.458;11.062;2023-03-12T16:10:49;100826.34;;;17.27;39.56
76808;BME280;65758;45.458;11.062;2023-03-12T16:13:18;100826.18;;;17.18;39.79
76808;BME280;65758;45.458;11.062;2023-03-12T16:15:46;100828.40;;;17.10;39.66
76808;BME280;65758;45.458;11.062;2023-03-12T16:18:18;100827.53;;;17.03;40.10
76808;BME280;65758;45.458;11.062;2023-03-12T16:20:46;100833.58;;;16.96;40.08
76808;BME280;65758;45.458;11.062;2023-03-12T16:23:14;100836.78;;;16.87;40.40
76808;BME280;65758;45.458;11.062;2023-03-12T16:25:47;100840.54;;;16.80;40.41
76808;BME280;65758;45.458;11.062;2023-03-12T16:28:16;100845.79;;;16.74;40.50
76808;BME280;65758;45.458;11.062;2023-03-12T16:30:44;100848.20;;;16.68;40.58
76808;BME280;65758;45.458;11.062;2023-03-12T16:33:14;100854.99;;;16.63;40.95
76808;BME280;65758;45.458;11.062;2023-03-12T16:35:41;100858.22;;;16.54;41.03
76808;BME280;65758;45.458;11.062;2023-03-12T16:38:08;100861.55;;;16.44;41.11
76808;BME280;65758;45.458;11.062;2023-03-12T16:40:39;100863.58;;;16.36;41.24
76808;BME280;65758;45.458;11.062;2023-03-12T16:43:14;100872.93;;;16.28;42.03
76808;BME280;65758;45.458;11.062;2023-03-12T16:45:43;100877.22;;;16.20;41.83
76808;BME280;65758;45.458;11.062;2023-03-12T16:48:16;100882.94;;;16.13;42.00
76808;BME280;65758;45.458;11.062;2023-03-12T16:50:52;100881.50;;;16.06;42.27
76808;BME280;65758;45.458;11.062;2023-03-12T16:53:19;100884.17;;;16.00;42.62
76808;BME280;65758;45.458;11.062;2023-03-12T16:55:50;100888.96;;;15.94;42.69
76808;BME280;65758;45.458;11.062;2023-03-12T16:58:19;100896.40;;;15.87;43.00
76808;BME280;65758;45.458;11.062;2023-03-12T17:00:47;100889.89;;;15.79;43.09
76808;BME280;65758;45.458;11.062;2023-03-12T17:03:29;100890.08;;;15.71;43.64
76808;BME280;65758;45.458;11.062;2023-03-12T17:06:00;100890.98;;;15.65;44.25
76808;BME280;65758;45.458;11.062;2023-03-12T17:08:27;100892.46;;;15.60;44.36
76808;BME280;65758;45.458;11.062;2023-03-12T17:10:55;100897.70;;;15.55;44.69
76808;BME280;65758;45.458;11.062;2023-03-12T17:13:25;100904.56;;;15.52;45.45
76808;BME280;65758;45.458;11.062;2023-03-12T17:15:53;100909.90;;;15.49;45.33
76808;BME280;65758;45.458;11.062;2023-03-12T17:18:21;100915.95;;;15.48;45.78
76808;BME280;65758;45.458;11.062;2023-03-12T17:20:48;100920.07;;;15.44;45.72
76808;BME280;65758;45.458;11.062;2023-03-12T17:23:19;100922.83;;;15.40;46.18
76808;BME280;65758;45.458;11.062;2023-03-12T17:25:46;100921.77;;;15.35;45.93
76808;BME280;65758;45.458;11.062;2023-03-12T17:28:13;100920.33;;;15.30;45.91
76808;BME280;65758;45.458;11.062;2023-03-12T17:30:41;100926.74;;;15.24;46.32
76808;BME280;65758;45.458;11.062;2023-03-12T17:33:14;100936.39;;;15.21;46.30
76808;BME280;65758;45.458;11.062;2023-03-12T17:35:41;100937.36;;;15.16;46.42
76808;BME280;65758;45.458;11.062;2023-03-12T17:38:09;100941.02;;;15.11;46.96
76808;BME280;65758;45.458;11.062;2023-03-12T17:40:41;100949.04;;;15.06;46.58
76808;BME280;65758;45.458;11.062;2023-03-12T17:43:08;100959.38;;;15.00;46.86
76808;BME280;65758;45.458;11.062;2023-03-12T17:45:34;100974.50;;;14.95;47.16
76808;BME280;65758;45.458;11.062;2023-03-12T17:48:05;100982.83;;;14.92;47.10
76808;BME280;65758;45.458;11.062;2023-03-12T17:50:33;100999.01;;;14.90;47.76
76808;BME280;65758;45.458;11.062;2023-03-12T17:52:59;101013.48;;;14.89;47.24
76808;BME280;65758;45.458;11.062;2023-03-12T17:55:26;101017.96;;;14.87;46.94
76808;BME280;65758;45.458;11.062;2023-03-12T17:57:53;101019.50;;;14.84;47.14
76808;BME280;65758;45.458;11.062;2023-03-12T18:00:20;101023.80;;;14.78;46.66
76808;BME280;65758;45.458;11.062;2023-03-12T18:02:49;101024.73;;;14.72;46.79
76808;BME280;65758;45.458;11.062;2023-03-12T18:05:16;101031.48;;;14.68;46.72
76808;BME280;65758;45.458;11.062;2023-03-12T18:07:46;101036.08;;;14.63;46.83
76808;BME280;65758;45.458;11.062;2023-03-12T18:10:13;101039.36;;;14.59;46.94
76808;BME280;65758;45.458;11.062;2023-03-12T18:12:40;101039.56;;;14.52;47.04
76808;BME280;65758;45.458;11.062;2023-03-12T18:15:08;101041.14;;;14.43;47.10
76808;BME280;65758;45.458;11.062;2023-03-12T18:17:36;101040.29;;;14.35;47.24
76808;BME280;65758;45.458;11.062;2023-03-12T18:20:04;101037.94;;;14.29;47.15
76808;BME280;65758;45.458;11.062;2023-03-12T18:22:45;101033.83;;;14.21;47.14
76808;BME280;65758;45.458;11.062;2023-03-12T18:25:11;101034.61;;;14.17;47.40
76808;BME280;65758;45.458;11.062;2023-03-12T18:27:38;101041.21;;;14.11;47.61
76808;BME280;65758;45.458;11.062;2023-03-12T18:30:07;101050.92;;;14.05;47.58
76808;BME280;65758;45.458;11.062;2023-03-12T18:32:37;101046.52;;;13.97;47.65
76808;BME280;65758;45.458;11.062;2023-03-12T18:35:05;101046.31;;;13.88;47.82
76808;BME280;65758;45.458;11.062;2023-03-12T18:37:33;101045.12;;;13.77;47.96
76808;BME280;65758;45.458;11.062;2023-03-12T18:39:59;101043.98;;;13.68;48.05
76808;BME280;65758;45.458;11.062;2023-03-12T18:42:26;101049.58;;;13.60;48.27
76808;BME280;65758;45.458;11.062;2023-03-12T18:44:53;101052.91;;;13.55;48.29
76808;BME280;65758;45.458;11.062;2023-03-12T18:47:20;101059.91;;;13.48;48.64
76808;BME280;65758;45.458;11.062;2023-03-12T18:49:46;101070.39;;;13.43;48.35
76808;BME280;65758;45.458;11.062;2023-03-12T18:52:13;101070.73;;;13.37;48.56
76808;BME280;65758;45.458;11.062;2023-03-12T18:54:40;101074.61;;;13.31;48.53
76808;BME280;65758;45.458;11.062;2023-03-12T18:57:06;101077.48;;;13.26;48.52
76808;BME280;65758;45.458;11.062;2023-03-12T18:59:33;101077.55;;;13.22;48.85
76808;BME280;65758;45.458;11.062;2023-03-12T19:02:00;101080.39;;;13.19;48.83
76808;BME280;65758;45.458;11.062;2023-03-12T19:04:27;101083.83;;;13.16;48.75
76808;BME280;65758;45.458;11.062;2023-03-12T19:06:53;101087.73;;;13.12;48.73
76808;BME280;65758;45.458;11.062;2023-03-12T19:09:20;101084.52;;;13.08;48.64
76808;BME280;65758;45.458;11.062;2023-03-12T19:11:47;101089.30;;;13.04;48.85
76808;BME280;65758;45.458;11.062;2023-03-12T19:14:14;101095.86;;;13.01;48.56
76808;BME280;65758;45.458;11.062;2023-03-12T19:16:41;101096.96;;;12.98;48.72
76808;BME280;65758;45.458;11.062;2023-03-12T19:19:08;101097.77;;;12.95;48.75
76808;BME280;65758;45.458;11.062;2023-03-12T19:21:35;101097.35;;;12.94;49.08
76808;BME280;65758;45.458;11.062;2023-03-12T19:24:01;101097.74;;;12.93;49.05
76808;BME280;65758;45.458;11.062;2023-03-12T19:26:28;101105.89;;;12.91;48.87
76808;BME280;65758;45.458;11.062;2023-03-12T19:28:55;101112.52;;;12.89;49.33
76808;BME280;65758;45.458;11.062;2023-03-12T19:31:21;101114.34;;;12.83;48.79
76808;BME280;65758;45.458;11.062;2023-03-12T19:33:48;101111.98;;;12.77;49.41
76808;BME280;65758;45.458;11.062;2023-03-12T19:36:15;101112.38;;;12.74;49.38
76808;BME280;65758;45.458;11.062;2023-03-12T19:38:42;101114.84;;;12.71;49.19
76808;BME280;65758;45.458;11.062;2023-03-12T19:41:08;101116.65;;;12.70;49.29
76808;BME280;65758;45.458;11.062;2023-03-12T19:43:36;101117.93;;;12.70;49.39
76808;BME280;65758;45.458;11.062;2023-03-12T19:46:04;101128.08;;;12.68;49.58
76808;BME280;65758;45.458;11.062;2023-03-12T19:48:31;101140.37;;;12.66;49.51
76808;BME280;65758;45.458;11.062;2023-03-12T19:51:06;101152.02;;;12.64;49.69
76808;BME280;65758;45.458;11.062;2023-03-12T19:53:33;101161.38;;;12.62;49.87
76808;BME280;65758;45.458;11.062;2023-03-12T19:56:01;101171.17;;;12.58;49.57
76808;BME280;65758;45.458;11.062;2023-03-12T19:58:28;101179.79;;;12.55;49.85
76808;BME280;65758;45.458;11.062;2023-03-12T20:00:58;101185.95;;;12.49;50.11